Monroe Township, Ohio
Current Conditions -  °F | °C
As of 3:10 AM on Tuesday 27 Jan 2015 (Local Time) from KHZY Reporting Station
Light Snow Light Snow  
Wind Chill: 10°   Ceiling: 1900
Heat Index: 19°   Visibility: 3mi
Dew Point: 15°   Wind: 7mph
Humidity: 85%   Direction: 350°N
Pressure: 29.9"   Gusts: NA
Location:  41.8949°N, 80.5816°W
Report Text: KHZY 270810Z AUTO 35006KT 3SM -SN BR SCT012 OVC019 M07/M09 A2990 RMK AO2 P0000 T10721094
Loading
Personal Weather Stations






























Interactive Weather Map New forecast layout! Learn more

10-Day Weather Forecast

Advertisements
Track Severe Weather on mobile